Time;durP1;ratioP1;P1;durP2;ratioP2;P2;SDS_P1;SDS_P2;PMS_P1;PMS_P2;Temp;Humidity;BMP_temperature;BMP_pressure;BME280_temperature;BME280_humidity;BME280_pressure;Samples;Min_cycle;Max_cycle;Signal;HPM_P1;HPM_P2
2022/04/16 00:01:49;;;;;;;18.20;7.57;;;10.50;99.90;;;;;;4978630;28;20031;-87
2022/04/16 00:04:15;;;;;;;12.10;6.22;;;10.50;99.90;;;;;;4978471;28;20034;-86
2022/04/16 00:06:41;;;;;;;17.45;7.07;;;10.50;99.90;;;;;;4995840;28;20482;-87
2022/04/16 00:09:06;;;;;;;;;;;10.50;99.90;;;;;;4995239;28;20115;-86
2022/04/16 00:11:32;;;;;;;17.40;9.20;;;10.40;99.90;;;;;;4978337;28;19906;-87
2022/04/16 00:13:58;;;;;;;;;;;10.40;99.90;;;;;;4978790;28;20088;-87
2022/04/16 00:16:25;;;;;;;18.77;7.87;;;10.40;99.90;;;;;;4995634;28;20519;-87
2022/04/16 00:18:50;;;;;;;12.90;7.68;;;10.30;99.90;;;;;;4978409;28;20030;-87
2022/04/16 00:21:17;;;;;;;;;;;10.30;99.90;;;;;;4978199;28;20498;-87
2022/04/16 00:23:43;;;;;;;11.10;6.53;;;10.20;99.90;;;;;;4978362;28;19910;-87
2022/04/16 00:26:12;;;;;;;10.35;6.07;;;10.30;99.90;;;;;;4978001;28;20360;-87
2022/04/16 00:28:38;;;;;;;16.33;8.32;;;10.20;99.90;;;;;;4995531;28;20085;-86
2022/04/16 00:31:04;;;;;;;21.02;10.13;;;10.20;99.90;;;;;;4978089;28;20110;-87
2022/04/16 00:33:31;;;;;;;;;;;10.20;99.90;;;;;;4978619;28;20101;-87
2022/04/16 00:35:56;;;;;;;19.17;10.23;;;10.20;99.90;;;;;;4978047;28;20297;-87
2022/04/16 00:38:22;;;;;;;29.92;13.73;;;10.30;99.90;;;;;;4978156;28;20030;-87
2022/04/16 00:40:47;;;;;;;;;;;10.30;99.90;;;;;;4995500;28;20105;-86
2022/04/16 00:43:23;;;;;;;26.25;12.75;;;10.30;99.90;;;;;;4977644;28;19905;-87
2022/04/16 00:45:49;;;;;;;38.35;16.88;;;10.30;99.90;;;;;;4995170;28;20650;-87
2022/04/16 00:48:15;;;;;;;;;;;10.30;99.90;;;;;;4978136;28;20093;-87
2022/04/16 00:50:41;;;;;;;22.17;11.07;;;10.30;99.90;;;;;;4977968;28;19913;-87
2022/04/16 00:53:06;;;;;;;;;;;10.30;99.90;;;;;;4995287;28;20125;-87
2022/04/16 00:55:37;;;;;;;11.73;6.28;;;10.40;99.90;;;;;;4994297;28;19905;-87
2022/04/16 00:58:02;;;;;;;12.15;6.70;;;10.30;99.90;;;;;;4994959;28;20022;-87
2022/04/16 01:00:28;;;;;;;;;;;10.30;99.90;;;;;;4994145;28;20471;-88
2022/04/16 01:02:56;;;;;;;11.55;6.50;;;10.40;99.90;;;;;;4977293;28;19906;-86
2022/04/16 01:05:22;;;;;;;10.95;5.85;;;10.40;99.90;;;;;;4994476;28;20038;-87
2022/04/16 01:07:48;;;;;;;;;;;10.40;99.90;;;;;;4995219;28;20026;-87
2022/04/16 01:10:14;;;;;;;14.63;5.85;;;10.40;99.90;;;;;;4977595;28;19905;-88
2022/04/16 01:12:39;;;;;;;14.23;6.35;;;10.50;99.90;;;;;;4977228;28;20089;-87
2022/04/16 01:15:05;;;;;;;;;;;10.40;99.90;;;;;;4977652;28;20038;-87
2022/04/16 01:17:31;;;;;;;12.00;5.97;;;10.40;99.90;;;;;;4994689;28;19956;-87
2022/04/16 01:19:57;;;;;;;;;;;10.40;99.90;;;;;;4994925;28;20030;-87
2022/04/16 01:22:29;;;;;;;16.50;8.48;;;10.40;99.90;;;;;;4977212;28;20000;-86
2022/04/16 01:24:55;;;;;;;11.35;6.15;;;10.40;99.90;;;;;;4977159;28;20037;-87
2022/04/16 01:27:20;;;;;;;;;;;10.40;99.90;;;;;;4994851;28;20026;-86
2022/04/16 01:29:47;;;;;;;10.50;6.47;;;10.40;99.90;;;;;;4976994;28;19906;-87
2022/04/16 01:32:13;;;;;;;8.73;6.13;;;10.40;99.90;;;;;;4976750;28;20027;-87
2022/04/16 01:34:40;;;;;;;;;;;10.40;99.90;;;;;;4976556;28;20122;-87
2022/04/16 01:37:06;;;;;;;10.80;5.70;;;10.40;99.90;;;;;;4976927;28;19906;-86
2022/04/16 01:39:32;;;;;;;11.32;5.90;;;10.50;99.90;;;;;;4977241;28;20038;-87
2022/04/16 01:41:58;;;;;;;;;;;10.50;99.90;;;;;;4994834;28;20173;-87
2022/04/16 01:44:24;;;;;;;14.45;7.63;;;10.40;99.90;;;;;;4976878;28;19921;-87
2022/04/16 01:46:50;;;;;;;;;;;10.40;99.90;;;;;;4977155;28;20478;-87
2022/04/16 01:49:15;;;;;;;13.10;7.10;;;10.30;99.90;;;;;;4977173;28;19932;-87
2022/04/16 01:51:41;;;;;;;;;;;10.30;99.90;;;;;;4993394;28;20560;-87
2022/04/16 01:54:07;;;;;;;10.45;6.45;;;10.20;99.90;;;;;;4976644;28;19914;-87
2022/04/16 01:56:32;;;;;;;;;;;10.10;99.90;;;;;;4977131;28;20061;-87
2022/04/16 01:58:58;;;;;;;22.92;9.40;;;10.10;99.90;;;;;;4976544;28;20433;-86
2022/04/16 02:01:23;;;;;;;;;;;10.00;99.90;;;;;;4993174;28;20403;-87
2022/04/16 02:03:49;;;;;;;16.02;8.68;;;10.00;99.90;;;;;;4976654;28;19906;-87
2022/04/16 02:06:17;;;;;;;;;;;10.00;99.90;;;;;;4976412;28;20026;-87
2022/04/16 02:08:43;;;;;;;11.77;7.10;;;9.90;99.90;;;;;;4976547;28;20001;-86
2022/04/16 02:11:09;;;;;;;;;;;9.80;99.90;;;;;;4976750;28;20065;-87
2022/04/16 02:13:34;;;;;;;10.02;6.18;;;9.80;99.90;;;;;;4976179;28;19960;-87
2022/04/16 02:16:00;;;;;;;;;;;9.60;99.90;;;;;;4994088;28;20022;-86
2022/04/16 02:18:27;;;;;;;12.57;6.97;;;9.60;99.90;;;;;;4976342;28;19912;-86
2022/04/16 02:20:53;;;;;;;13.65;5.97;;;9.50;99.90;;;;;;4976241;28;20506;-87
2022/04/16 02:23:19;;;;;;;;;;;9.40;99.90;;;;;;4977027;28;20018;-87
2022/04/16 02:25:44;;;;;;;10.05;5.72;;;9.40;99.90;;;;;;4975843;28;19906;-87
2022/04/16 02:28:11;;;;;;;;;;;9.30;99.90;;;;;;4992569;28;20126;-87
2022/04/16 02:30:37;;;;;;;13.63;7.25;;;9.30;99.90;;;;;;4976027;28;19909;-87
2022/04/16 02:33:03;;;;;;;13.35;7.38;;;9.30;99.90;;;;;;4976178;28;20030;-87
2022/04/16 02:35:29;;;;;;;;;;;9.20;99.90;;;;;;4976905;28;20030;-87
2022/04/16 02:37:55;;;;;;;11.63;6.05;;;9.20;99.90;;;;;;4976062;28;19952;-87
2022/04/16 02:40:21;;;;;;;16.13;6.85;;;9.30;99.90;;;;;;4975779;28;20545;-87
2022/04/16 02:42:47;;;;;;;;;;;9.30;99.90;;;;;;4993905;28;20026;-85
2022/04/16 02:47:59;;;;;;;10.05;5.72;;;9.30;99.90;;;;;;4997642;28;20528;-87
2022/04/16 02:50:25;;;;;;;12.02;6.25;;;9.30;99.90;;;;;;4980291;28;20027;-87
2022/04/16 02:52:56;;;;;;;13.23;6.32;;;9.30;99.90;;;;;;4996934;28;20081;-87
2022/04/16 02:55:22;;;;;;;11.65;6.70;;;9.30;99.90;;;;;;4979987;28;20018;-87
2022/04/16 02:57:49;;;;;;;;;;;9.30;99.90;;;;;;4996321;28;20046;-86
2022/04/16 03:00:15;;;;;;;8.90;5.35;;;9.30;99.90;;;;;;5012305;28;20289;-85
2022/04/16 03:02:41;;;;;;;12.88;5.95;;;9.30;99.90;;;;;;4997055;28;20050;-87
2022/04/16 03:05:08;;;;;;;;;;;9.30;99.90;;;;;;4979998;28;20507;-86
2022/04/16 03:07:37;;;;;;;7.32;5.05;;;9.30;99.90;;;;;;4979573;28;20369;-87
2022/04/16 03:10:05;;;;;;;11.52;5.50;;;9.30;99.90;;;;;;4979723;28;20108;-87
2022/04/16 03:13:00;;;;;;;8.73;5.47;;;9.40;99.90;;;;;;4979575;28;20030;-88
2022/04/16 03:18:10;;;;;;;12.77;6.53;;;9.30;99.90;;;;;;4997009;28;20049;-87
2022/04/16 03:20:37;;;;;;;;;;;9.30;99.90;;;;;;4997046;28;20542;-87
2022/04/16 03:23:03;;;;;;;6.88;4.70;;;9.30;99.90;;;;;;4979204;28;19999;-86
2022/04/16 03:25:30;;;;;;;10.50;5.47;;;9.30;99.90;;;;;;4996721;28;20109;-85
2022/04/16 03:27:56;;;;;;;8.55;5.00;;;9.30;99.90;;;;;;4981436;28;20035;-87
2022/04/16 03:30:23;;;;;;;8.13;5.97;;;9.30;99.90;;;;;;4979217;28;20441;-87
2022/04/16 03:32:50;;;;;;;12.18;5.15;;;9.30;99.90;;;;;;4979064;28;20517;-87
2022/04/16 03:35:19;;;;;;;9.32;4.78;;;9.40;99.90;;;;;;4978991;28;20105;-86
2022/04/16 03:37:45;;;;;;;9.50;5.32;;;9.40;99.90;;;;;;4978987;28;20539;-88
2022/04/16 03:40:12;;;;;;;;;;;9.50;99.90;;;;;;4979559;28;20018;-87
2022/04/16 03:42:45;;;;;;;9.30;5.82;;;9.40;99.90;;;;;;4979174;28;19910;-86
2022/04/16 03:45:21;;;;;;;7.60;5.25;;;9.40;99.90;;;;;;4978997;28;20557;-87
2022/04/16 03:47:51;;;;;;;7.55;5.07;;;9.40;99.90;;;;;;4979076;28;20032;-87
2022/04/16 03:50:17;;;;;;;10.60;5.40;;;9.40;99.90;;;;;;4978796;28;20034;-87
2022/04/16 03:52:46;;;;;;;10.07;6.07;;;9.50;99.90;;;;;;4998715;28;20022;-86
2022/04/16 04:00:46;;;;;;;9.45;4.80;;;9.70;99.90;;;;;;4996292;28;20076;-86
2022/04/16 04:03:12;;;;;;;5.43;3.45;;;9.80;99.90;;;;;;4995666;28;20594;-87
2022/04/16 04:05:39;;;;;;;6.82;3.75;;;10.00;99.90;;;;;;4995694;28;20026;-87
2022/04/16 04:08:06;;;;;;;6.63;4.18;;;10.10;99.90;;;;;;4995936;28;20026;-87
2022/04/16 04:10:32;;;;;;;10.25;3.65;;;10.30;99.90;;;;;;4995618;28;20150;-86
2022/04/16 04:12:57;;;;;;;;;;;10.40;99.90;;;;;;4978560;28;20137;-85
2022/04/16 04:15:23;;;;;;;6.15;3.97;;;10.70;99.90;;;;;;4978543;28;20397;-87
2022/04/16 04:17:50;;;;;;;7.43;4.40;;;10.80;99.90;;;;;;4978185;28;20053;-86
2022/04/16 04:20:15;;;;;;;;;;;11.00;99.90;;;;;;4979047;28;20062;-86
2022/04/16 04:22:41;;;;;;;6.35;4.22;;;11.20;99.90;;;;;;4978287;28;20019;-86
2022/04/16 04:25:06;;;;;;;;;;;11.20;99.90;;;;;;4978178;28;20487;-86
2022/04/16 04:27:32;;;;;;;7.38;3.75;;;11.30;99.90;;;;;;4978441;28;19913;-86
2022/04/16 04:30:01;;;;;;;;;;;11.20;99.90;;;;;;4995708;28;20026;-86
2022/04/16 04:32:29;;;;;;;6.97;2.78;;;11.00;99.90;;;;;;4977904;28;19910;-87
2022/04/16 04:34:55;;;;;;;4.00;2.45;;;11.00;99.90;;;;;;4977874;28;20030;-86
2022/04/16 04:37:20;;;;;;;;;;;11.00;99.90;;;;;;4978575;28;20026;-87
2022/04/16 04:39:46;;;;;;;5.90;2.33;;;10.90;99.90;;;;;;4977661;28;20404;-86
2022/04/16 04:42:12;;;;;;;5.40;2.20;;;10.80;99.90;;;;;;4977756;28;20032;-86
2022/04/16 04:44:37;;;;;;;3.58;1.77;;;10.70;99.90;;;;;;4995320;28;20041;-86
2022/04/16 04:47:03;;;;;;;;;;;10.60;99.90;;;;;;4977917;28;20057;-87
2022/04/16 04:49:29;;;;;;;2.08;1.00;;;10.40;99.90;;;;;;4994798;28;19917;-86
2022/04/16 04:51:55;;;;;;;;;;;10.30;99.90;;;;;;4978112;28;20038;-85
2022/04/16 04:54:21;;;;;;;2.17;0.70;;;10.20;99.90;;;;;;4977633;28;20012;-86
2022/04/16 04:56:47;;;;;;;4.50;0.63;;;10.10;99.90;;;;;;4993619;28;20113;-86
2022/04/16 04:59:12;;;;;;;;;;;10.00;99.90;;;;;;4976931;28;20058;-84
2022/04/16 05:01:38;;;;;;;2.47;1.02;;;9.80;99.90;;;;;;4976566;28;19906;-86
2022/04/16 05:04:04;;;;;;;1.63;0.77;;;9.80;99.90;;;;;;4977688;28;20026;-86
2022/04/16 05:06:30;;;;;;;2.50;0.70;;;9.70;99.90;;;;;;4977052;28;20039;-86
2022/04/16 05:08:55;;;;;;;;;;;9.70;99.90;;;;;;4977573;28;20475;-86
2022/04/16 05:11:21;;;;;;;1.25;0.70;;;9.70;99.90;;;;;;4977544;28;20394;-86
2022/04/16 05:13:47;;;;;;;;;;;9.70;99.90;;;;;;4977873;28;20439;-85
2022/04/16 05:16:13;;;;;;;3.40;0.77;;;9.60;99.90;;;;;;4977329;28;19912;-86
2022/04/16 05:18:38;;;;;;;;;;;9.60;99.90;;;;;;4977414;28;20026;-86
2022/04/16 05:21:04;;;;;;;0.93;0.40;;;9.50;99.90;;;;;;4976917;28;19906;-86
2022/04/16 05:23:30;;;;;;;;;;;9.50;99.90;;;;;;4977856;28;20043;-86
2022/04/16 05:25:55;;;;;;;0.80;0.40;;;9.50;99.90;;;;;;4976912;28;19905;-86
2022/04/16 05:28:21;;;;;;;;;;;9.50;99.90;;;;;;4978091;28;20030;-86
2022/04/16 05:30:54;;;;;;;1.20;0.30;;;9.50;99.90;;;;;;4977088;28;19916;-86
2022/04/16 05:36:05;;;;;;;0.75;0.40;;;9.50;99.90;;;;;;4994269;28;20057;-85
2022/04/16 05:38:31;;;;;;;0.68;0.30;;;9.60;99.90;;;;;;4976742;28;20030;-86
2022/04/16 05:40:57;;;;;;;;;;;9.60;99.90;;;;;;4977405;28;20027;-86
2022/04/16 05:43:22;;;;;;;0.70;0.30;;;9.60;99.90;;;;;;4976599;28;19968;-87
2022/04/16 05:45:48;;;;;;;1.75;0.60;;;9.60;99.90;;;;;;4976886;28;20458;-86
2022/04/16 05:48:14;;;;;;;0.90;0.40;;;9.70;99.90;;;;;;4992899;28;20042;-87
2022/04/16 05:50:40;;;;;;;;;;;9.70;99.90;;;;;;4976821;28;20037;-86
2022/04/16 05:53:11;;;;;;;1.08;0.52;;;9.80;99.90;;;;;;4994554;28;19910;-87
2022/04/16 05:55:45;;;;;;;0.90;0.47;;;10.00;99.90;;;;;;4976270;28;20036;-87
2022/04/16 05:58:11;;;;;;;0.60;0.40;;;10.10;99.90;;;;;;4976779;28;20026;-86
2022/04/16 06:00:37;;;;;;;1.13;0.45;;;10.10;99.90;;;;;;4976402;28;20030;-86
2022/04/16 06:03:04;;;;;;;1.10;0.50;;;10.10;99.90;;;;;;4976387;28;20030;-86
2022/04/16 06:05:31;;;;;;;1.60;0.60;;;10.10;99.90;;;;;;4976432;28;20030;-86
2022/04/16 06:08:00;;;;;;;1.00;0.60;;;10.30;99.90;;;;;;4976592;28;20023;-86
2022/04/16 06:10:27;;;;;;;1.95;1.20;;;10.40;99.90;;;;;;4973063;28;20026;-86
2022/04/16 06:12:53;;;;;;;1.85;0.90;;;10.40;99.90;;;;;;4976406;28;20498;-86
2022/04/16 06:15:18;;;;;;;;;;;10.50;99.90;;;;;;4977312;28;20032;-86
2022/04/16 06:17:44;;;;;;;1.55;0.82;;;10.50;99.90;;;;;;4976285;28;19906;-86
2022/04/16 06:20:10;;;;;;;;;;;10.50;99.90;;;;;;4997192;28;20109;-85
2022/04/16 06:22:37;;;;;;;2.33;1.25;;;10.40;99.90;;;;;;4982910;28;19906;-85
2022/04/16 06:25:03;;;;;;;2.28;1.08;;;10.30;99.90;;;;;;4982527;28;20034;-86
2022/04/16 06:27:28;;;;;;;;;;;10.40;99.90;;;;;;4983051;28;20033;-86
2022/04/16 06:29:54;;;;;;;2.85;1.20;;;10.40;99.90;;;;;;5015311;28;19906;-85
2022/04/16 06:32:20;;;;;;;;;;;10.40;99.90;;;;;;4982712;28;20018;-86
2022/04/16 06:34:45;;;;;;;3.00;1.42;;;10.40;99.90;;;;;;5000099;28;19946;-85
2022/04/16 06:37:11;;;;;;;;;;;10.20;99.90;;;;;;5000082;28;20026;-85
2022/04/16 06:39:37;;;;;;;3.03;1.33;;;10.20;99.90;;;;;;4981737;28;20275;-84
2022/04/16 06:42:03;;;;;;;;;;;10.00;99.90;;;;;;4982471;28;20397;-84
2022/04/16 06:44:29;;;;;;;4.32;2.50;;;9.80;99.90;;;;;;4982414;28;19905;-85
2022/04/16 06:46:55;;;;;;;2.88;1.65;;;9.70;99.90;;;;;;4982115;28;20046;-84
2022/04/16 06:49:20;;;;;;;;;;;9.50;99.90;;;;;;4982763;28;20022;-85
2022/04/16 06:51:46;;;;;;;3.30;1.90;;;9.40;99.90;;;;;;4982138;28;19949;-85
2022/04/16 06:54:12;;;;;;;;;;;9.40;99.90;;;;;;4982474;28;20042;-85
2022/04/16 06:56:37;;;;;;;3.38;1.92;;;9.40;99.90;;;;;;4982339;28;19906;-85
2022/04/16 06:59:03;;;;;;;2.67;1.40;;;9.60;99.90;;;;;;4982078;28;20030;-85
2022/04/16 07:01:28;;;;;;;;;;;9.70;99.90;;;;;;4982811;28;20379;-84
2022/04/16 07:03:54;;;;;;;2.13;1.48;;;9.90;99.90;;;;;;4981935;28;19960;-85
2022/04/16 07:06:20;;;;;;;;;;;10.20;99.90;;;;;;4999806;28;20027;-85
2022/04/16 07:08:45;;;;;;;2.15;1.25;;;10.60;99.90;;;;;;4982057;28;19913;-85
2022/04/16 07:11:11;;;;;;;;;;;11.00;99.90;;;;;;4982794;28;20495;-85
2022/04/16 07:13:36;;;;;;;1.55;0.80;;;11.50;99.90;;;;;;4999539;28;19914;-86
2022/04/16 07:16:02;;;;;;;;;;;12.40;99.90;;;;;;4982651;28;20030;-86
2022/04/16 07:18:28;;;;;;;3.53;1.33;;;13.10;99.90;;;;;;4981744;28;19909;-87
2022/04/16 07:20:53;;;;;;;;;;;14.00;98.50;;;;;;4999728;28;20073;-85
2022/04/16 07:23:19;;;;;;;1.75;0.75;;;14.50;85.80;;;;;;4982298;28;19913;-87
2022/04/16 07:25:45;;;;;;;2.13;1.10;;;14.90;79.40;;;;;;4999174;28;20391;-86
2022/04/16 07:28:21;;;;;;;1.63;0.57;;;15.20;73.70;;;;;;4998867;28;20038;-87
2022/04/16 07:30:48;;;;;;;1.27;0.60;;;15.50;71.10;;;;;;4996728;28;20019;-87
2022/04/16 07:33:14;;;;;;;1.90;0.85;;;15.50;68.30;;;;;;4995304;28;20030;-87
2022/04/16 07:35:40;;;;;;;;;;;15.20;68.90;;;;;;4979547;28;20045;-87
2022/04/16 07:38:06;;;;;;;1.05;0.60;;;15.30;66.60;;;;;;4979014;28;19967;-87
2022/04/16 07:40:31;;;;;;;6.00;2.42;;;16.00;64.80;;;;;;4979023;28;20022;-88
2022/04/16 07:42:58;;;;;;;1.20;0.60;;;16.90;61.60;;;;;;4979166;28;20035;-87
2022/04/16 07:45:24;;;;;;;1.60;0.75;;;16.50;57.90;;;;;;4978809;28;20038;-87
2022/04/16 07:47:49;;;;;;;1.17;0.50;;;16.20;60.50;;;;;;4978829;28;20030;-86
2022/04/16 07:50:16;;;;;;;2.00;0.75;;;16.00;63.10;;;;;;4995808;28;20073;-86
2022/04/16 07:52:43;;;;;;;1.98;0.98;;;15.60;63.90;;;;;;4995836;28;20026;-85
2022/04/16 07:55:09;;;;;;;1.17;0.77;;;15.50;69.50;;;;;;4995219;28;20034;-86
2022/04/16 07:57:34;;;;;;;;;;;15.20;78.20;;;;;;4979120;28;20042;-86
2022/04/16 08:00:00;;;;;;;2.42;1.67;;;14.60;88.90;;;;;;5011280;28;19961;-86
2022/04/16 08:02:25;;;;;;;;;;;14.10;90.60;;;;;;4996258;28;20034;-87
2022/04/16 08:04:51;;;;;;;1.77;1.00;;;13.80;91.60;;;;;;4978522;28;19917;-86
2022/04/16 08:07:17;;;;;;;2.05;1.02;;;13.60;91.00;;;;;;4978553;28;20566;-86
2022/04/16 08:09:42;;;;;;;;;;;13.40;92.40;;;;;;4995049;28;20114;-86
2022/04/16 08:12:08;;;;;;;3.88;1.77;;;13.30;92.90;;;;;;4978468;28;20000;-86
2022/04/16 08:14:34;;;;;;;;;;;13.10;94.70;;;;;;4978819;28;20034;-86
2022/04/16 08:16:59;;;;;;;2.45;1.33;;;12.90;91.20;;;;;;4978348;28;19906;-87
2022/04/16 08:19:25;;;;;;;;;;;12.80;91.30;;;;;;4978671;28;20038;-86
2022/04/16 08:21:53;;;;;;;3.22;1.60;;;13.00;82.10;;;;;;4995717;28;19953;-87
2022/04/16 08:27:14;;;;;;;3.03;1.90;;;12.90;87.70;;;;;;4959372;28;20035;-87
2022/04/16 08:29:39;;;;;;;;;;;12.80;92.00;;;;;;4978499;28;20033;-85
2022/04/16 08:32:05;;;;;;;2.97;1.60;;;12.90;91.50;;;;;;4977882;28;19906;-86
2022/04/16 08:34:31;;;;;;;2.72;1.45;;;12.70;88.60;;;;;;4995270;28;20053;-87
2022/04/16 08:36:57;;;;;;;;;;;12.80;91.10;;;;;;4978058;28;20398;-86
2022/04/16 08:39:22;;;;;;;3.13;2.42;;;12.70;94.20;;;;;;4977794;28;19905;-86
2022/04/16 08:41:49;;;;;;;;;;;12.80;94.60;;;;;;4994151;28;20491;-86
2022/04/16 08:44:19;;;;;;;2.83;1.75;;;12.80;91.70;;;;;;4977804;28;19913;-87
2022/04/16 08:46:44;;;;;;;3.90;2.13;;;12.90;93.10;;;;;;4977527;28;20047;-86
2022/04/16 08:49:10;;;;;;;;;;;13.00;92.30;;;;;;4978350;28;20036;-86
2022/04/16 08:51:36;;;;;;;2.35;1.48;;;13.20;91.10;;;;;;4977217;28;19906;-87
2022/04/16 08:54:01;;;;;;;;;;;13.40;86.40;;;;;;4978107;28;20038;-86
2022/04/16 08:56:27;;;;;;;3.65;1.73;;;13.50;84.70;;;;;;4977809;28;19906;-86
2022/04/16 08:58:53;;;;;;;;;;;13.60;84.60;;;;;;4977780;28;20022;-85
2022/04/16 09:01:18;;;;;;;2.40;1.48;;;13.60;86.70;;;;;;4977508;28;19906;-86
2022/04/16 09:03:48;;;;;;;;;;;13.70;89.10;;;;;;4978030;28;20027;-87
2022/04/16 09:06:22;;;;;;;2.78;1.40;;;13.80;90.60;;;;;;4977398;28;19906;-87
2022/04/16 09:08:48;;;;;;;2.22;1.40;;;13.90;90.40;;;;;;4977366;28;20030;-87
2022/04/16 09:11:14;;;;;;;;;;;14.00;90.50;;;;;;4993795;28;20562;-87
2022/04/16 09:13:50;;;;;;;2.30;1.45;;;13.90;88.40;;;;;;4976867;28;19949;-86
2022/04/16 09:16:20;;;;;;;2.80;1.42;;;13.90;90.50;;;;;;4977187;28;20022;-87
2022/04/16 09:18:54;;;;;;;1.92;1.20;;;13.80;90.80;;;;;;4977157;28;20081;-86
2022/04/16 09:21:24;;;;;;;3.42;1.30;;;13.70;91.90;;;;;;4977062;28;20034;-87
2022/04/16 09:23:53;;;;;;;2.53;1.60;;;13.60;93.10;;;;;;4977266;28;20030;-87
2022/04/16 09:26:36;;;;;;;1.98;1.33;;;13.40;93.70;;;;;;4977248;28;20026;-86
2022/04/16 09:29:10;;;;;;;3.80;1.05;;;13.30;96.40;;;;;;4977181;28;20038;-87
2022/04/16 09:31:40;;;;;;;1.92;1.00;;;13.10;98.60;;;;;;4994119;28;20495;-86
2022/04/16 09:34:26;;;;;;;2.17;1.20;;;12.80;99.90;;;;;;4994049;28;20395;-87
2022/04/16 09:36:54;;;;;;;2.08;1.13;;;12.50;99.90;;;;;;4994148;28;20034;-86
2022/04/16 09:39:22;;;;;;;3.40;1.55;;;12.40;99.90;;;;;;4992579;28;20030;-87
2022/04/16 09:41:51;;;;;;;2.72;1.38;;;12.30;99.90;;;;;;4976810;28;20483;-86
2022/04/16 09:44:21;;;;;;;3.80;2.00;;;12.20;99.90;;;;;;4976758;28;20034;-86
2022/04/16 09:46:48;;;;;;;8.77;5.55;;;12.20;99.90;;;;;;4973008;28;20570;-86
2022/04/16 09:49:16;;;;;;;11.55;9.02;;;12.30;99.90;;;;;;4957197;28;20078;-85
2022/04/16 09:51:43;;;;;;;4.07;2.60;;;12.40;99.90;;;;;;4957296;28;20034;-86
2022/04/16 09:54:11;;;;;;;4.85;2.80;;;12.60;99.90;;;;;;4973848;28;20038;-87
2022/04/16 09:56:42;;;;;;;3.55;2.13;;;13.10;99.90;;;;;;4957343;28;20019;-86
2022/04/16 09:59:14;;;;;;;2.88;2.03;;;13.70;99.30;;;;;;4956943;28;20487;-87
2022/04/16 10:01:46;;;;;;;2.63;1.65;;;14.10;94.10;;;;;;4965211;28;20027;-87
2022/04/16 10:04:19;;;;;;;2.28;1.23;;;14.80;93.90;;;;;;4972917;28;20031;-87
2022/04/16 10:06:46;;;;;;;3.70;1.50;;;15.30;86.00;;;;;;4973116;28;20023;-87
2022/04/16 10:09:17;;;;;;;4.68;1.30;;;16.30;74.40;;;;;;4974352;28;20035;-87
2022/04/16 10:15:03;;;;;;;1.42;0.80;;;17.70;66.30;;;;;;4974351;28;20155;-87
2022/04/16 10:17:31;;;;;;;1.60;0.90;;;17.80;61.90;;;;;;4957159;28;20031;-86
2022/04/16 10:20:20;;;;;;;1.63;0.70;;;17.80;63.90;;;;;;4989429;28;20479;-88
2022/04/16 10:22:56;;;;;;;3.63;1.10;;;18.40;60.00;;;;;;4950300;28;20026;-87
2022/04/16 10:25:35;;;;;;;;;;;18.60;58.10;;;;;;4957343;28;20177;-87
2022/04/16 10:28:06;;;;;;;1.25;0.63;;;18.00;55.80;;;;;;4974319;28;20378;-87
2022/04/16 10:30:52;;;;;;;1.63;0.90;;;17.80;57.40;;;;;;4956740;28;20415;-87
2022/04/16 10:33:20;;;;;;;1.70;0.90;;;17.60;57.90;;;;;;4974224;28;20120;-87
2022/04/16 10:35:57;;;;;;;2.38;1.33;;;17.50;56.50;;;;;;4956639;28;20384;-86
2022/04/16 10:38:37;;;;;;;2.05;0.80;;;17.70;55.40;;;;;;4956857;28;20031;-87
2022/04/16 10:41:10;;;;;;;1.83;0.85;;;17.30;55.40;;;;;;4956951;28;20158;-86
2022/04/16 10:43:36;;;;;;;2.35;0.65;;;16.80;56.50;;;;;;4956663;28;20034;-88
2022/04/16 10:46:02;;;;;;;2.05;0.70;;;16.80;56.80;;;;;;4956928;28;20047;-88
2022/04/16 10:48:31;;;;;;;1.23;0.57;;;16.70;57.30;;;;;;4973773;28;20498;-87
2022/04/16 10:50:58;;;;;;;1.90;0.55;;;16.70;55.60;;;;;;4956782;28;20034;-87
2022/04/16 10:53:28;;;;;;;1.58;0.60;;;16.60;55.60;;;;;;4956605;28;20034;-87
2022/04/16 10:55:54;;;;;;;1.60;0.57;;;16.60;55.50;;;;;;4974098;28;20109;-88
2022/04/16 10:58:27;;;;;;;0.75;0.43;;;16.50;56.20;;;;;;4956560;28;20059;-87
2022/04/16 11:01:04;;;;;;;1.20;0.38;;;16.30;57.00;;;;;;4973473;28;20380;-87
2022/04/16 11:03:30;;;;;;;2.83;1.42;;;16.10;57.40;;;;;;4956758;28;20030;-87
2022/04/16 11:06:15;;;;;;;;;;;16.10;59.00;;;;;;4957655;28;20110;-88
2022/04/16 11:08:41;;;;;;;5.10;1.00;;;16.10;58.10;;;;;;4960125;28;20366;-84
2022/04/16 11:11:09;;;;;;;1.27;0.60;;;16.10;57.40;;;;;;4977938;28;20038;-88
2022/04/16 11:13:36;;;;;;;3.88;1.85;;;16.10;55.60;;;;;;4977238;28;20070;-87
2022/04/16 11:16:02;;;;;;;4.63;1.67;;;16.10;53.80;;;;;;4977267;28;20068;-87
2022/04/16 11:18:37;;;;;;;2.42;0.98;;;16.20;54.80;;;;;;4959883;28;20023;-87
2022/04/16 11:21:07;;;;;;;2.60;1.30;;;16.40;54.00;;;;;;4977291;28;20110;-87
2022/04/16 11:23:39;;;;;;;1.88;0.60;;;16.50;52.80;;;;;;4960061;28;20561;-87
2022/04/16 11:34:28;;;;;;;2.28;0.90;;;16.70;51.30;;;;;;4976987;28;20537;-86
2022/04/16 11:36:54;;;;;;;0.88;0.30;;;16.90;51.00;;;;;;4976586;28;20027;-88
2022/04/16 11:39:21;;;;;;;;;;;17.10;49.70;;;;;;4960366;28;20027;-87
2022/04/16 11:41:57;;;;;;;0.65;0.30;;;16.90;51.30;;;;;;4959634;28;19910;-87
2022/04/16 11:44:40;;;;;;;1.02;0.30;;;16.90;48.90;;;;;;4960071;28;20034;-87
2022/04/16 11:47:12;;;;;;;0.85;0.40;;;16.80;49.80;;;;;;4959635;28;20043;-87
2022/04/16 11:49:51;;;;;;;0.40;0.20;;;16.90;49.10;;;;;;4975361;28;20054;-88
2022/04/16 11:52:26;;;;;;;0.68;0.30;;;16.70;49.00;;;;;;4976760;28;20039;-87
2022/04/16 11:55:13;;;;;;;0.75;0.38;;;16.70;50.20;;;;;;4959499;28;20034;-87
2022/04/16 11:57:47;;;;;;;1.35;0.30;;;17.00;48.00;;;;;;4959507;28;20027;-87
2022/04/16 12:00:14;;;;;;;0.95;0.40;;;16.80;50.70;;;;;;4959272;28;20053;-87
2022/04/16 12:02:47;;;;;;;0.93;0.30;;;16.70;50.10;;;;;;4976646;28;20027;-87
2022/04/16 12:05:14;;;;;;;0.55;0.30;;;16.70;49.20;;;;;;4976578;28;20035;-87
2022/04/16 12:07:43;;;;;;;0.47;0.22;;;16.50;49.70;;;;;;4975557;28;20447;-87
2022/04/16 12:10:11;;;;;;;1.05;0.30;;;16.70;49.50;;;;;;4959494;28;20475;-87
2022/04/16 12:12:49;;;;;;;0.40;0.20;;;16.90;47.70;;;;;;4958954;28;20023;-87
2022/04/16 12:15:34;;;;;;;5.53;0.30;;;17.20;46.40;;;;;;4959110;28;20495;-87
2022/04/16 12:18:18;;;;;;;7.57;0.40;;;17.20;46.50;;;;;;4958550;28;20019;-86
2022/04/16 12:20:48;;;;;;;2.00;0.50;;;17.40;46.70;;;;;;4959012;28;20023;-86
2022/04/16 12:23:24;;;;;;;0.30;0.20;;;17.50;45.80;;;;;;4959026;28;20031;-88
2022/04/16 12:26:01;;;;;;;;;;;17.50;46.10;;;;;;4959381;28;20027;-87
2022/04/16 12:28:28;;;;;;;0.77;0.30;;;17.40;46.90;;;;;;4959411;28;19993;-87
2022/04/16 12:30:54;;;;;;;0.73;0.40;;;17.30;44.50;;;;;;4975170;28;20138;-88
2022/04/16 12:33:25;;;;;;;0.85;0.30;;;17.20;44.90;;;;;;4957939;28;20117;-88
2022/04/16 12:35:55;;;;;;;1.20;0.40;;;16.90;44.60;;;;;;4958702;28;20407;-87
2022/04/16 12:38:21;;;;;;;1.00;0.20;;;16.80;45.50;;;;;;4958664;28;20073;-88
2022/04/16 12:40:47;;;;;;;0.17;0.17;;;16.80;44.00;;;;;;4958434;28;20023;-87
2022/04/16 12:43:15;;;;;;;0.45;0.20;;;16.80;44.20;;;;;;4958807;28;20089;-88
2022/04/16 12:45:41;;;;;;;1.02;0.40;;;16.70;45.00;;;;;;4975665;28;20026;-88
2022/04/16 12:48:06;;;;;;;;;;;16.40;46.20;;;;;;4976170;28;20391;-87
2022/04/16 12:50:33;;;;;;;1.23;0.30;;;16.30;47.30;;;;;;4958491;28;20283;-88
2022/04/16 12:53:04;;;;;;;0.70;0.47;;;16.20;45.80;;;;;;4958438;28;20189;-87
2022/04/16 12:55:30;;;;;;;1.38;0.50;;;16.00;46.20;;;;;;4958439;28;20113;-87
2022/04/16 12:57:55;;;;;;;;;;;15.90;47.60;;;;;;4958704;28;20166;-87
2022/04/16 13:00:22;;;;;;;0.95;0.43;;;16.00;48.40;;;;;;4958474;28;19906;-87
2022/04/16 13:02:48;;;;;;;1.17;0.20;;;16.30;46.40;;;;;;4958195;28;20030;-87
2022/04/16 13:05:18;;;;;;;0.73;0.30;;;16.10;45.70;;;;;;4958253;28;20030;-87
2022/04/16 13:07:45;;;;;;;1.70;0.88;;;16.10;44.50;;;;;;4958180;28;20527;-87
2022/04/16 13:10:12;;;;;;;1.55;0.30;;;16.20;45.20;;;;;;4958223;28;20027;-87
2022/04/16 13:12:38;;;;;;;2.58;0.38;;;16.40;46.40;;;;;;4958101;28;20030;-87
2022/04/16 13:15:04;;;;;;;;;;;16.40;44.60;;;;;;4958245;28;20117;-87
2022/04/16 13:17:30;;;;;;;0.67;0.30;;;16.40;44.40;;;;;;4975479;28;19937;-87
2022/04/16 13:19:56;;;;;;;;;;;16.50;44.30;;;;;;4958355;28;20270;-87
2022/04/16 13:22:22;;;;;;;0.47;0.30;;;16.30;45.60;;;;;;4975477;28;20280;-88
2022/04/16 13:24:47;;;;;;;;;;;16.20;45.20;;;;;;4975154;28;20023;-87
2022/04/16 13:27:13;;;;;;;0.80;0.30;;;16.20;46.80;;;;;;4957978;28;19997;-86
2022/04/16 13:29:38;;;;;;;;;;;16.40;46.60;;;;;;4957163;28;20027;-87
2022/04/16 13:32:05;;;;;;;1.15;0.30;;;16.20;46.60;;;;;;4957859;28;19911;-87
2022/04/16 13:34:31;;;;;;;0.73;0.20;;;16.00;47.20;;;;;;4974805;28;20041;-87
2022/04/16 13:36:57;;;;;;;0.40;0.20;;;15.90;47.40;;;;;;4974596;28;20026;-87
2022/04/16 13:42:08;;;;;;;1.02;0.30;;;15.80;47.70;;;;;;4975097;28;20369;-87